Time;durP1;ratioP1;P1;durP2;ratioP2;P2;SDS_P1;SDS_P2;PMS_P1;PMS_P2;Temp;Humidity;BMP_temperature;BMP_pressure;BME280_temperature;BME280_humidity;BME280_pressure;Samples;Min_cycle;Max_cycle;Signal;HPM_P1;HPM_P2
2023/04/11 00:01:28;;;;;;;16.73;10.65;;;11.60;61.00;;;;;;6245093;23;20004;-67
2023/04/11 00:03:55;;;;;;;20.98;10.70;;;11.60;61.20;;;;;;6245297;23;20008;-67
2023/04/11 00:06:22;;;;;;;23.48;11.27;;;11.60;60.50;;;;;;6245349;23;20307;-68
2023/04/11 00:08:48;;;;;;;22.70;11.02;;;11.60;61.10;;;;;;6245428;23;20071;-67
2023/04/11 00:11:14;;;;;;;16.80;9.43;;;11.50;61.40;;;;;;6245500;23;20020;-67
2023/04/11 00:13:42;;;;;;;19.70;9.30;;;11.40;61.10;;;;;;6245159;23;20011;-67
2023/04/11 00:16:08;;;;;;;13.77;9.00;;;11.40;61.60;;;;;;6245141;23;19996;-68
2023/04/11 00:18:36;;;;;;;13.98;8.23;;;11.30;61.70;;;;;;6245105;23;20004;-67
2023/04/11 00:21:07;;;;;;;12.35;7.65;;;11.30;62.40;;;;;;6245106;23;20004;-67
2023/04/11 00:23:32;;;;;;;15.40;7.90;;;11.30;61.80;;;;;;6245386;23;20426;-67
2023/04/11 00:25:58;;;;;;;10.80;7.47;;;11.30;62.00;;;;;;6245739;23;20003;-67
2023/04/11 00:28:24;;;;;;;11.55;7.25;;;11.30;62.10;;;;;;6247179;23;20004;-67
2023/04/11 00:30:50;;;;;;;11.93;7.82;;;11.30;61.60;;;;;;6247397;23;19996;-67
2023/04/11 00:33:15;;;;;;;13.70;7.15;;;11.30;62.30;;;;;;6247106;23;20000;-68
2023/04/11 00:35:43;;;;;;;14.13;7.45;;;11.20;62.40;;;;;;6247166;23;20004;-67
2023/04/11 00:38:08;;;;;;;12.43;7.35;;;11.10;62.60;;;;;;6247166;23;20007;-67
2023/04/11 00:40:34;;;;;;;10.55;6.80;;;11.20;62.50;;;;;;6247126;23;20001;-67
2023/04/11 00:43:00;;;;;;;10.07;6.88;;;11.10;62.30;;;;;;6246857;23;20331;-67
2023/04/11 00:45:26;;;;;;;9.35;6.07;;;11.10;62.40;;;;;;6247118;23;19996;-67
2023/04/11 00:47:53;;;;;;;8.85;6.32;;;11.00;62.50;;;;;;6246967;23;20010;-67
2023/04/11 00:50:20;;;;;;;10.30;6.28;;;11.00;62.70;;;;;;6261996;22;20069;-67
2023/04/11 00:52:48;;;;;;;9.60;6.88;;;11.00;63.10;;;;;;6277504;22;19995;-67
2023/04/11 00:55:15;;;;;;;9.70;5.88;;;10.90;62.80;;;;;;6277457;22;20438;-67
2023/04/11 00:57:44;;;;;;;12.20;6.47;;;11.00;62.50;;;;;;6275973;22;20002;-68
2023/04/11 01:00:10;;;;;;;9.15;6.45;;;11.00;62.50;;;;;;6274664;22;20079;-67
2023/04/11 01:02:41;;;;;;;8.52;6.03;;;11.00;63.10;;;;;;6274117;22;20008;-67
2023/04/11 01:05:13;;;;;;;11.82;6.85;;;11.00;63.00;;;;;;6275742;22;20067;-67
2023/04/11 01:07:40;;;;;;;9.98;6.07;;;10.90;63.10;;;;;;6277308;22;20071;-67
2023/04/11 01:10:07;;;;;;;9.05;5.97;;;10.90;62.90;;;;;;6277462;22;20003;-68
2023/04/11 01:12:34;;;;;;;7.87;6.27;;;10.90;62.40;;;;;;6277201;22;20363;-68
2023/04/11 01:15:00;;;;;;;10.17;6.80;;;10.90;63.00;;;;;;6277604;22;20441;-67
2023/04/11 01:17:26;;;;;;;8.90;6.23;;;10.90;63.50;;;;;;6277450;22;19996;-67
2023/04/11 01:19:52;;;;;;;12.55;6.78;;;10.80;63.40;;;;;;6277548;22;20011;-67
2023/04/11 01:22:21;;;;;;;7.73;5.63;;;10.80;63.40;;;;;;6276832;22;20018;-67
2023/04/11 01:24:48;;;;;;;10.35;6.78;;;10.70;63.40;;;;;;6277434;22;20188;-68
2023/04/11 01:27:14;;;;;;;11.80;6.30;;;10.70;63.70;;;;;;6277123;22;20418;-67
2023/04/11 01:29:40;;;;;;;8.45;6.15;;;10.60;63.60;;;;;;6277070;22;20034;-67
2023/04/11 01:32:06;;;;;;;9.40;6.20;;;10.60;64.40;;;;;;6277228;22;20302;-67
2023/04/11 01:34:34;;;;;;;7.18;5.60;;;10.60;64.50;;;;;;6277084;22;20012;-68
2023/04/11 01:37:00;;;;;;;7.40;5.33;;;10.50;65.40;;;;;;6276527;22;20010;-67
2023/04/11 01:39:26;;;;;;;6.97;5.13;;;10.50;65.00;;;;;;6276762;22;20003;-67
2023/04/11 01:41:54;;;;;;;5.13;4.30;;;10.50;65.10;;;;;;6277148;22;20057;-68
2023/04/11 01:44:20;;;;;;;6.20;4.60;;;10.50;64.90;;;;;;6276749;22;20014;-67
2023/04/11 01:46:46;;;;;;;6.40;4.97;;;10.50;65.30;;;;;;6277051;22;19996;-67
2023/04/11 01:49:17;;;;;;;8.40;4.87;;;10.50;65.50;;;;;;6276683;22;20006;-68
2023/04/11 01:51:44;;;;;;;9.50;5.25;;;10.50;65.30;;;;;;6276663;22;20008;-67
2023/04/11 01:54:09;;;;;;;7.47;5.20;;;10.50;65.00;;;;;;6276638;22;20006;-67
2023/04/11 01:56:35;;;;;;;6.80;5.13;;;10.50;65.10;;;;;;6277144;22;20000;-67
2023/04/11 01:59:01;;;;;;;10.15;5.53;;;10.50;65.60;;;;;;6277098;22;20004;-67
2023/04/11 02:01:27;;;;;;;9.33;5.87;;;10.50;65.00;;;;;;6276876;22;20058;-67
2023/04/11 02:03:52;;;;;;;8.77;5.30;;;10.50;64.30;;;;;;6276463;22;20087;-67
2023/04/11 02:06:18;;;;;;;5.95;4.80;;;10.50;64.70;;;;;;6276528;22;20003;-67
2023/04/11 02:08:44;;;;;;;6.47;5.33;;;10.40;64.00;;;;;;6276578;22;19999;-67
2023/04/11 02:11:10;;;;;;;7.47;5.22;;;10.40;64.30;;;;;;6276711;22;20007;-67
2023/04/11 02:13:36;;;;;;;7.13;5.03;;;10.40;64.40;;;;;;6276726;22;20026;-67
2023/04/11 02:16:16;;;;;;;7.77;5.60;;;10.30;64.60;;;;;;6276814;22;20411;-67
2023/04/11 02:18:43;;;;;;;8.25;5.38;;;10.30;64.30;;;;;;6276236;22;20007;-67
2023/04/11 02:21:09;;;;;;;8.40;5.53;;;10.30;64.20;;;;;;6276705;22;20437;-67
2023/04/11 02:23:35;;;;;;;8.30;5.13;;;10.20;64.30;;;;;;6276585;22;20018;-67
2023/04/11 02:26:02;;;;;;;8.00;5.37;;;10.20;64.30;;;;;;6276416;22;19996;-67
2023/04/11 02:28:28;;;;;;;7.70;5.20;;;10.10;64.50;;;;;;6276337;22;20010;-67
2023/04/11 02:30:54;;;;;;;10.60;6.33;;;10.10;64.80;;;;;;6276516;22;20000;-67
2023/04/11 02:33:20;;;;;;;10.83;5.37;;;10.10;65.10;;;;;;6276496;22;20003;-67
2023/04/11 02:35:47;;;;;;;8.00;5.47;;;10.00;65.80;;;;;;6276429;22;19996;-67
2023/04/11 02:38:13;;;;;;;8.43;5.20;;;10.00;66.30;;;;;;6276532;22;20267;-67
2023/04/11 02:40:39;;;;;;;9.17;5.43;;;9.90;66.90;;;;;;6276410;22;20071;-67
2023/04/11 02:43:04;;;;;;;7.50;5.00;;;9.90;66.80;;;;;;6276274;22;20062;-67
2023/04/11 02:45:30;;;;;;;6.33;4.87;;;9.90;66.90;;;;;;6276273;22;19998;-67
2023/04/11 02:47:57;;;;;;;6.20;5.10;;;9.90;67.10;;;;;;6276293;22;20004;-67
2023/04/11 02:50:25;;;;;;;7.50;5.10;;;9.90;67.50;;;;;;6276193;22;20039;-68
2023/04/11 02:52:51;;;;;;;9.70;5.80;;;9.90;67.60;;;;;;6276451;22;20007;-67
2023/04/11 02:55:17;;;;;;;8.17;5.67;;;9.90;67.30;;;;;;6276473;22;20026;-67
2023/04/11 02:57:43;;;;;;;8.83;5.57;;;9.90;66.80;;;;;;6276381;22;19996;-67
2023/04/11 03:00:10;;;;;;;7.33;5.00;;;9.90;66.90;;;;;;6276486;22;20080;-67
2023/04/11 03:02:35;;;;;;;10.50;5.67;;;10.00;66.90;;;;;;6276385;22;20003;-67
2023/04/11 03:05:02;;;;;;;8.07;5.83;;;9.90;67.10;;;;;;6276365;22;20008;-67
2023/04/11 03:07:32;;;;;;;12.40;5.77;;;9.90;66.60;;;;;;6276190;22;19996;-67
2023/04/11 03:10:01;;;;;;;10.07;5.93;;;10.00;66.40;;;;;;6276061;22;20000;-67
2023/04/11 03:12:26;;;;;;;9.33;5.63;;;10.00;66.20;;;;;;6276001;22;20317;-67
2023/04/11 03:14:52;;;;;;;9.93;6.50;;;10.00;66.30;;;;;;6276333;22;20077;-67
2023/04/11 03:17:18;;;;;;;11.50;6.07;;;10.00;66.30;;;;;;6276293;22;20061;-67
2023/04/11 03:19:44;;;;;;;12.20;6.83;;;9.90;66.10;;;;;;6276285;22;19995;-68
2023/04/11 03:22:10;;;;;;;14.20;7.47;;;9.90;65.80;;;;;;6276169;22;20018;-67
2023/04/11 03:24:39;;;;;;;10.33;6.37;;;10.00;65.80;;;;;;6276028;22;20418;-67
2023/04/11 03:27:05;;;;;;;17.40;6.70;;;9.90;65.80;;;;;;6275783;22;19996;-67
2023/04/11 03:29:31;;;;;;;14.70;6.67;;;9.90;65.80;;;;;;6275965;22;20004;-67
2023/04/11 03:31:59;;;;;;;12.43;6.73;;;9.80;65.50;;;;;;6276209;22;20011;-67
2023/04/11 03:34:25;;;;;;;13.83;7.30;;;9.80;65.50;;;;;;6276088;22;20007;-68
2023/04/11 03:36:51;;;;;;;10.73;5.97;;;9.80;65.90;;;;;;6276159;22;19996;-67
2023/04/11 03:39:18;;;;;;;12.27;7.33;;;9.80;66.00;;;;;;6275980;22;20075;-67
2023/04/11 03:41:44;;;;;;;12.03;6.53;;;9.80;65.90;;;;;;6276079;22;20023;-67
2023/04/11 03:44:10;;;;;;;17.70;7.03;;;9.80;66.60;;;;;;6276099;22;20333;-67
2023/04/11 03:46:36;;;;;;;17.47;7.37;;;9.80;66.70;;;;;;6275984;22;20057;-67
2023/04/11 03:49:01;;;;;;;13.20;6.07;;;9.80;67.20;;;;;;6275586;22;20058;-67
2023/04/11 03:51:27;;;;;;;17.37;7.27;;;9.70;67.10;;;;;;6275582;22;20016;-67
2023/04/11 03:53:53;;;;;;;9.70;6.30;;;9.70;67.20;;;;;;6275978;22;20008;-67
2023/04/11 03:56:19;;;;;;;15.73;6.40;;;9.70;67.70;;;;;;6276031;22;20002;-67
2023/04/11 03:58:45;;;;;;;17.10;6.83;;;9.70;67.70;;;;;;6275877;22;20086;-67
2023/04/11 04:01:11;;;;;;;10.37;7.20;;;9.70;67.70;;;;;;6276327;22;20077;-67
2023/04/11 04:03:36;;;;;;;13.80;7.57;;;9.70;67.50;;;;;;6277674;22;20007;-67
2023/04/11 04:06:02;;;;;;;15.47;6.97;;;9.70;67.50;;;;;;6277935;22;20079;-67
2023/04/11 04:08:28;;;;;;;12.80;7.03;;;9.70;67.30;;;;;;6277989;22;20031;-67
2023/04/11 04:10:54;;;;;;;16.17;7.17;;;9.70;67.20;;;;;;6278221;22;20000;-67
2023/04/11 04:13:19;;;;;;;16.43;7.60;;;9.70;67.10;;;;;;6277969;22;20053;-67
2023/04/11 04:15:45;;;;;;;12.97;6.67;;;9.70;67.10;;;;;;6277933;22;20000;-67
2023/04/11 04:18:11;;;;;;;12.57;7.00;;;9.70;66.70;;;;;;6277875;22;19996;-67
2023/04/11 04:20:36;;;;;;;9.17;6.03;;;9.70;66.70;;;;;;6277907;22;20011;-67
2023/04/11 04:23:03;;;;;;;12.17;6.90;;;9.70;66.60;;;;;;6277783;22;20322;-67
2023/04/11 04:25:29;;;;;;;8.57;6.33;;;9.70;66.70;;;;;;6250692;22;20014;-67
2023/04/11 04:27:56;;;;;;;12.07;6.07;;;9.70;66.90;;;;;;6277726;22;20330;-67
2023/04/11 04:30:22;;;;;;;8.70;6.27;;;9.60;67.50;;;;;;6278123;22;20938;-67
2023/04/11 04:32:53;;;;;;;14.37;6.40;;;9.60;67.90;;;;;;6277769;22;20035;-67
2023/04/11 04:35:19;;;;;;;18.93;6.77;;;9.50;67.60;;;;;;6277458;22;20006;-67
2023/04/11 04:37:45;;;;;;;15.13;6.50;;;9.60;67.40;;;;;;6277449;22;20050;-67
2023/04/11 04:40:13;;;;;;;18.47;6.73;;;9.60;67.00;;;;;;6277523;22;20004;-67
2023/04/11 04:42:42;;;;;;;15.23;7.27;;;9.60;67.10;;;;;;6277797;22;20004;-67
2023/04/11 04:45:10;;;;;;;14.00;7.00;;;9.60;67.00;;;;;;6277595;22;20000;-67
2023/04/11 04:47:37;;;;;;;10.90;6.93;;;9.60;67.30;;;;;;6277757;22;20008;-68
2023/04/11 04:50:03;;;;;;;14.57;6.80;;;9.60;67.50;;;;;;6277300;22;20018;-67
2023/04/11 04:52:29;;;;;;;12.13;7.10;;;9.60;67.20;;;;;;6277787;22;20000;-67
2023/04/11 04:54:59;;;;;;;10.60;6.23;;;9.60;67.90;;;;;;6277882;22;20312;-67
2023/04/11 04:57:30;;;;;;;12.80;6.53;;;9.50;67.80;;;;;;6277528;22;19995;-67
2023/04/11 04:59:57;;;;;;;11.77;7.20;;;9.50;67.80;;;;;;6277247;22;20014;-67
2023/04/11 05:02:25;;;;;;;11.53;7.10;;;9.50;68.10;;;;;;6277380;22;20434;-67
2023/04/11 05:04:52;;;;;;;14.70;6.40;;;9.50;69.10;;;;;;6276942;22;20039;-67
2023/04/11 05:07:19;;;;;;;15.30;7.00;;;9.50;69.50;;;;;;6276976;22;20294;-67
2023/04/11 05:09:46;;;;;;;19.13;7.23;;;9.50;69.00;;;;;;6276941;22;20420;-68
2023/04/11 05:12:13;;;;;;;16.43;6.60;;;9.50;69.10;;;;;;6276691;22;20469;-68
2023/04/11 05:14:39;;;;;;;26.20;7.77;;;9.50;68.70;;;;;;6276913;22;20000;-67
2023/04/11 05:17:04;;;;;;;17.03;7.37;;;9.50;68.60;;;;;;6249959;22;20000;-68
2023/04/11 05:19:31;;;;;;;17.47;7.33;;;9.50;68.50;;;;;;6277105;22;20006;-68
2023/04/11 05:21:56;;;;;;;13.60;7.27;;;9.50;69.00;;;;;;6276773;22;20291;-68
2023/04/11 05:24:22;;;;;;;21.23;8.60;;;9.60;69.70;;;;;;6276973;22;20008;-68
2023/04/11 05:26:48;;;;;;;16.73;8.07;;;9.60;69.40;;;;;;6276642;22;19996;-67
2023/04/11 05:29:14;;;;;;;13.70;7.27;;;9.60;69.70;;;;;;6276599;22;20000;-68
2023/04/11 05:31:40;;;;;;;21.80;7.27;;;9.60;70.30;;;;;;6277102;22;19999;-67
2023/04/11 05:34:05;;;;;;;37.47;8.50;;;9.60;69.80;;;;;;6277220;22;20008;-68
2023/04/11 05:36:31;;;;;;;18.47;6.70;;;9.60;70.20;;;;;;6277099;22;20026;-67
2023/04/11 05:38:57;;;;;;;18.83;7.13;;;9.70;70.40;;;;;;6276819;22;20004;-68
2023/04/11 05:41:23;;;;;;;13.80;6.70;;;9.70;70.30;;;;;;6276418;22;20145;-67
2023/04/11 05:43:49;;;;;;;15.00;7.20;;;9.70;70.30;;;;;;6276361;22;20035;-66
2023/04/11 05:46:16;;;;;;;16.03;6.70;;;9.80;71.50;;;;;;6275241;22;20003;-67
2023/04/11 05:48:42;;;;;;;15.07;7.53;;;9.80;71.00;;;;;;6276702;22;20426;-67
2023/04/11 05:51:08;;;;;;;16.73;7.13;;;9.80;71.10;;;;;;6276229;22;20016;-67
2023/04/11 05:53:34;;;;;;;15.73;6.73;;;9.90;71.60;;;;;;6276281;22;20007;-70
2023/04/11 05:56:00;;;;;;;16.47;7.23;;;9.90;71.60;;;;;;6276656;22;20031;-66
2023/04/11 05:58:26;;;;;;;12.27;6.63;;;9.90;71.20;;;;;;6272512;22;20020;-68
2023/04/11 06:00:52;;;;;;;10.63;7.47;;;10.00;70.90;;;;;;6273029;22;20000;-67
2023/04/11 06:03:18;;;;;;;10.87;6.20;;;10.00;70.50;;;;;;6274212;22;20330;-67
2023/04/11 06:05:44;;;;;;;11.20;5.63;;;10.10;70.60;;;;;;6276449;22;20006;-68
2023/04/11 06:08:10;;;;;;;10.80;5.93;;;10.10;70.10;;;;;;6274601;22;20011;-67
2023/04/11 06:10:36;;;;;;;7.97;5.27;;;10.20;69.70;;;;;;6273652;22;20074;-67
2023/04/11 06:13:02;;;;;;;7.50;5.60;;;10.20;70.40;;;;;;6274544;22;20362;-68
2023/04/11 06:15:28;;;;;;;8.40;5.83;;;10.20;70.20;;;;;;6276676;22;20012;-68
2023/04/11 06:17:54;;;;;;;9.73;5.95;;;10.30;70.30;;;;;;6276957;22;19996;-68
2023/04/11 06:20:21;;;;;;;11.30;6.67;;;10.30;70.40;;;;;;6276804;22;20079;-68
2023/04/11 06:22:50;;;;;;;7.90;5.87;;;10.40;70.60;;;;;;6276712;22;19996;-68
2023/04/11 06:25:17;;;;;;;13.07;6.00;;;10.40;70.30;;;;;;6276310;22;20004;-68
2023/04/11 06:27:43;;;;;;;13.13;6.35;;;10.40;70.20;;;;;;6276949;22;20000;-67
2023/04/11 06:30:09;;;;;;;10.43;7.00;;;10.50;70.40;;;;;;6276555;22;20414;-67
2023/04/11 06:32:34;;;;;;;15.60;6.70;;;10.50;70.30;;;;;;6276958;22;20000;-68
2023/04/11 06:35:00;;;;;;;12.80;6.60;;;10.50;70.20;;;;;;6276832;22;20351;-68
2023/04/11 06:37:26;;;;;;;14.60;6.87;;;10.60;71.20;;;;;;6276618;22;19992;-67
2023/04/11 06:39:51;;;;;;;11.53;6.63;;;10.60;70.90;;;;;;6276811;22;20006;-67
2023/04/11 06:42:17;;;;;;;9.20;6.10;;;10.60;71.30;;;;;;6276794;22;20031;-68
2023/04/11 06:44:45;;;;;;;9.93;6.00;;;10.70;71.60;;;;;;6276531;22;20015;-67
2023/04/11 06:47:11;;;;;;;10.20;6.05;;;10.70;71.30;;;;;;6276461;22;20075;-67
2023/04/11 06:49:36;;;;;;;12.52;6.57;;;10.70;70.40;;;;;;6276699;22;20043;-68
2023/04/11 06:52:02;;;;;;;11.53;7.00;;;10.80;70.00;;;;;;6276344;22;20002;-67
2023/04/11 06:54:28;;;;;;;19.08;7.35;;;10.80;70.00;;;;;;6249411;22;20016;-67
2023/04/11 06:56:56;;;;;;;16.08;7.68;;;10.80;70.00;;;;;;6276508;22;20414;-67
2023/04/11 06:59:22;;;;;;;15.83;8.33;;;10.90;70.40;;;;;;6276495;22;20089;-67
2023/04/11 07:01:48;;;;;;;15.30;8.63;;;10.90;71.00;;;;;;6276433;22;20449;-67
2023/04/11 07:04:14;;;;;;;16.40;8.67;;;10.90;72.00;;;;;;6276360;22;20018;-67
2023/04/11 07:06:40;;;;;;;20.30;9.23;;;11.00;72.30;;;;;;6276693;22;20015;-67
2023/04/11 07:09:05;;;;;;;19.58;8.90;;;11.00;72.10;;;;;;6276602;22;20007;-67
2023/04/11 07:11:32;;;;;;;25.25;8.85;;;11.00;72.00;;;;;;6249547;22;20084;-67
2023/04/11 07:14:01;;;;;;;30.85;10.15;;;11.00;72.70;;;;;;6275906;22;20007;-67
2023/04/11 07:16:27;;;;;;;15.95;8.52;;;11.00;72.90;;;;;;6276024;22;19996;-67
2023/04/11 07:18:54;;;;;;;22.17;7.75;;;11.00;73.70;;;;;;6276409;22;20138;-67
2023/04/11 07:21:20;;;;;;;12.50;7.40;;;11.10;73.20;;;;;;6276314;22;20061;-67
2023/04/11 07:23:46;;;;;;;17.30;8.05;;;11.10;73.40;;;;;;6276441;22;20015;-67
2023/04/11 07:26:13;;;;;;;12.77;7.38;;;11.10;73.40;;;;;;6275947;22;20418;-67
2023/04/11 07:28:40;;;;;;;14.98;6.85;;;11.20;72.50;;;;;;6276373;22;20004;-67
2023/04/11 07:31:11;;;;;;;10.35;7.30;;;11.20;72.60;;;;;;6276022;22;20004;-68
2023/04/11 07:33:37;;;;;;;15.40;7.50;;;11.30;72.40;;;;;;6275701;22;20084;-68
2023/04/11 07:36:04;;;;;;;28.88;7.55;;;11.30;72.10;;;;;;6276063;22;20000;-68
2023/04/11 07:38:30;;;;;;;17.83;7.40;;;11.30;71.20;;;;;;6276075;22;20004;-68
2023/04/11 07:40:56;;;;;;;11.18;7.20;;;11.40;70.70;;;;;;6276390;22;20426;-68
2023/04/11 07:43:23;;;;;;;14.07;7.78;;;11.40;70.60;;;;;;6276236;22;20661;-68
2023/04/11 07:45:49;;;;;;;16.15;8.02;;;11.40;70.50;;;;;;6276319;22;20022;-68
2023/04/11 07:48:15;;;;;;;24.00;8.73;;;11.50;70.80;;;;;;6248999;22;20035;-67
2023/04/11 07:50:40;;;;;;;17.83;7.97;;;11.50;70.70;;;;;;6276047;22;20011;-68
2023/04/11 07:53:06;;;;;;;14.43;7.25;;;11.50;70.80;;;;;;6276295;22;20031;-68
2023/04/11 07:55:33;;;;;;;11.43;7.28;;;11.60;70.80;;;;;;6276081;22;20014;-67
2023/04/11 07:57:58;;;;;;;12.80;6.82;;;11.60;70.50;;;;;;6275869;22;20038;-67
2023/04/11 08:00:27;;;;;;;13.73;7.63;;;11.70;70.50;;;;;;6276102;22;19996;-68
2023/04/11 08:02:52;;;;;;;14.55;7.70;;;11.80;70.90;;;;;;6276179;22;20039;-67
2023/04/11 08:05:18;;;;;;;17.48;7.82;;;11.80;70.90;;;;;;6275985;22;20338;-68
2023/04/11 08:07:44;;;;;;;11.38;7.30;;;11.90;70.50;;;;;;6276294;22;20002;-67
2023/04/11 08:10:10;;;;;;;9.65;6.63;;;11.90;70.10;;;;;;6276109;22;20000;-68
2023/04/11 08:12:36;;;;;;;12.50;6.30;;;12.00;70.00;;;;;;6275807;22;20000;-68
2023/04/11 08:15:01;;;;;;;10.75;6.80;;;12.00;69.40;;;;;;6275982;22;19996;-67
2023/04/11 08:17:27;;;;;;;9.45;6.25;;;12.00;70.50;;;;;;6275948;22;20000;-67
2023/04/11 08:19:54;;;;;;;10.38;6.55;;;12.10;70.20;;;;;;6275488;22;20065;-68
2023/04/11 08:22:20;;;;;;;13.30;6.70;;;12.20;69.70;;;;;;6274952;22;20082;-67
2023/04/11 08:24:45;;;;;;;9.60;6.78;;;12.20;69.20;;;;;;6275413;22;20564;-68
2023/04/11 08:27:11;;;;;;;8.90;6.43;;;12.20;68.50;;;;;;6272766;22;20073;-68
2023/04/11 08:29:37;;;;;;;12.00;6.93;;;12.30;69.70;;;;;;6272152;22;20004;-68
2023/04/11 08:32:04;;;;;;;11.02;6.97;;;12.30;69.50;;;;;;6272333;22;20006;-69
2023/04/11 08:34:32;;;;;;;9.75;7.03;;;12.30;69.00;;;;;;6275076;22;20000;-69
2023/04/11 08:36:58;;;;;;;9.63;6.68;;;12.30;68.70;;;;;;6275205;22;20010;-69
2023/04/11 08:39:24;;;;;;;11.10;7.18;;;12.40;69.10;;;;;;6275508;22;20023;-67
2023/04/11 08:41:50;;;;;;;10.55;6.55;;;12.40;69.40;;;;;;6275286;22;20006;-69
2023/04/11 08:44:16;;;;;;;13.50;6.88;;;12.40;69.20;;;;;;6275556;22;20014;-68
2023/04/11 08:46:42;;;;;;;7.78;6.57;;;12.40;69.30;;;;;;6275391;22;20000;-68
2023/04/11 08:49:09;;;;;;;14.45;6.78;;;12.40;69.20;;;;;;6276550;22;20011;-68
2023/04/11 08:51:35;;;;;;;9.95;7.00;;;12.40;69.10;;;;;;6277228;22;20008;-69
2023/04/11 08:54:07;;;;;;;10.57;6.50;;;12.50;69.30;;;;;;6277317;22;20077;-68
2023/04/11 08:56:34;;;;;;;8.88;6.28;;;12.50;69.40;;;;;;6276328;22;20473;-68
2023/04/11 08:59:00;;;;;;;11.73;6.95;;;12.50;69.70;;;;;;6276650;22;19999;-68
2023/04/11 09:01:33;;;;;;;10.95;6.97;;;12.60;69.80;;;;;;6277040;22;20000;-68
2023/04/11 09:04:04;;;;;;;12.93;6.72;;;12.60;69.60;;;;;;6274712;22;20315;-68
2023/04/11 09:06:31;;;;;;;12.40;7.15;;;12.70;69.40;;;;;;6273117;22;20004;-68
2023/04/11 09:09:04;;;;;;;14.27;7.88;;;12.60;69.50;;;;;;6273658;22;20027;-68
2023/04/11 09:11:30;;;;;;;13.77;6.88;;;12.70;69.20;;;;;;6275144;22;20010;-68
2023/04/11 09:14:09;;;;;;;13.80;7.10;;;12.70;69.60;;;;;;6277184;22;20079;-68
2023/04/11 09:16:35;;;;;;;9.70;7.05;;;12.80;70.00;;;;;;6277535;22;20000;-68
2023/04/11 09:19:01;;;;;;;10.30;6.93;;;12.80;69.40;;;;;;6277560;22;20003;-68
2023/04/11 09:21:28;;;;;;;9.40;6.80;;;12.80;69.30;;;;;;6277233;22;20000;-68
2023/04/11 09:24:13;;;;;;;9.77;6.45;;;12.80;69.20;;;;;;6277417;22;20150;-68
2023/04/11 09:26:38;;;;;;;9.77;5.93;;;12.90;69.40;;;;;;6277314;22;20008;-68
2023/04/11 09:29:04;;;;;;;11.07;6.30;;;12.90;69.30;;;;;;6277229;22;20082;-68
2023/04/11 09:31:44;;;;;;;13.25;6.82;;;12.90;69.30;;;;;;6277506;22;19996;-68
2023/04/11 09:34:12;;;;;;;12.18;7.05;;;12.90;68.90;;;;;;6277488;22;20012;-68
2023/04/11 09:36:39;;;;;;;9.15;6.53;;;12.90;68.30;;;;;;6277372;22;20004;-68
2023/04/11 09:39:18;;;;;;;8.57;6.55;;;13.00;68.40;;;;;;6277287;22;20500;-68
2023/04/11 09:41:44;;;;;;;9.27;6.45;;;13.00;68.00;;;;;;6277390;22;20012;-69
2023/04/11 09:44:10;;;;;;;8.63;5.75;;;13.00;67.50;;;;;;6276445;22;20012;-68
2023/04/11 09:46:36;;;;;;;8.70;5.90;;;13.00;67.60;;;;;;6276868;22;20003;-68
2023/04/11 09:49:02;;;;;;;11.75;5.88;;;13.10;67.30;;;;;;6276657;22;20003;-68
2023/04/11 09:51:28;;;;;;;8.50;5.80;;;13.10;67.00;;;;;;6276789;22;20012;-69
2023/04/11 09:53:55;;;;;;;7.97;5.90;;;13.10;65.90;;;;;;6277184;22;20074;-68
2023/04/11 09:56:22;;;;;;;9.20;5.50;;;13.20;66.00;;;;;;6276400;22;19996;-68
2023/04/11 09:58:49;;;;;;;9.18;5.90;;;13.20;67.00;;;;;;6272689;22;20008;-69
2023/04/11 10:01:18;;;;;;;6.40;5.20;;;13.30;66.70;;;;;;6272775;22;20003;-68
2023/04/11 10:03:46;;;;;;;7.10;5.20;;;13.30;66.80;;;;;;6274445;22;20018;-68
2023/04/11 10:06:21;;;;;;;5.88;4.82;;;13.30;66.60;;;;;;6275886;22;20000;-69
2023/04/11 10:08:49;;;;;;;8.68;4.82;;;13.40;66.40;;;;;;6276511;22;20071;-69
2023/04/11 10:11:19;;;;;;;7.45;5.20;;;13.40;66.70;;;;;;6276729;22;20083;-69
2023/04/11 10:13:46;;;;;;;6.93;5.30;;;13.40;67.10;;;;;;6276313;22;20070;-69
2023/04/11 10:16:17;;;;;;;7.20;5.15;;;13.50;67.10;;;;;;6276308;22;20069;-69
2023/04/11 10:19:03;;;;;;;6.85;5.15;;;13.50;66.60;;;;;;6276819;22;20007;-69
2023/04/11 10:21:32;;;;;;;9.60;4.97;;;13.60;66.60;;;;;;6250731;22;20095;-69
2023/04/11 10:24:20;;;;;;;8.95;5.57;;;13.60;66.30;;;;;;6276495;22;20017;-69
2023/04/11 10:26:57;;;;;;;7.32;5.45;;;13.60;66.20;;;;;;6276049;22;20004;-68
2023/04/11 10:29:32;;;;;;;6.18;4.97;;;13.60;66.30;;;;;;6276411;22;20012;-69
2023/04/11 10:32:16;;;;;;;7.20;4.70;;;13.70;67.20;;;;;;6277257;22;20310;-69
2023/04/11 10:34:54;;;;;;;7.32;5.32;;;13.70;66.10;;;;;;6276866;22;20468;-69
2023/04/11 10:37:38;;;;;;;9.15;5.05;;;13.70;65.30;;;;;;6276586;22;20000;-69
2023/04/11 10:40:11;;;;;;;8.15;5.85;;;13.70;64.90;;;;;;6276334;22;20007;-69
2023/04/11 10:42:41;;;;;;;5.85;4.78;;;13.70;65.50;;;;;;6275849;22;20342;-69
2023/04/11 10:45:14;;;;;;;6.90;4.40;;;13.80;65.40;;;;;;6276000;22;20015;-69
2023/04/11 10:47:40;;;;;;;6.10;4.88;;;13.80;65.00;;;;;;6276325;22;20057;-68
2023/04/11 10:50:27;;;;;;;5.85;4.82;;;13.90;65.40;;;;;;6275752;22;20015;-69
2023/04/11 10:52:54;;;;;;;6.53;4.72;;;13.90;65.00;;;;;;6276391;22;20067;-69
2023/04/11 10:55:21;;;;;;;5.95;4.68;;;13.90;64.60;;;;;;6276444;22;20000;-69
2023/04/11 10:58:02;;;;;;;6.22;4.68;;;13.90;64.40;;;;;;6276112;22;20006;-68
2023/04/11 11:00:28;;;;;;;5.20;4.65;;;13.90;64.40;;;;;;6276622;22;20472;-68
2023/04/11 11:02:54;;;;;;;6.70;4.97;;;13.90;64.40;;;;;;6276013;22;20000;-68
2023/04/11 11:05:22;;;;;;;8.82;5.20;;;13.90;64.30;;;;;;6275861;22;20072;-68
2023/04/11 11:07:49;;;;;;;7.35;5.25;;;13.90;64.40;;;;;;6276263;22;20003;-68
2023/04/11 11:10:35;;;;;;;7.13;5.00;;;14.00;64.40;;;;;;6275724;22;20500;-69
2023/04/11 11:13:00;;;;;;;8.75;4.47;;;14.00;64.60;;;;;;6275388;22;20003;-69
2023/04/11 11:15:28;;;;;;;8.70;5.82;;;14.10;64.60;;;;;;6275913;22;20031;-69
2023/04/11 11:17:54;;;;;;;8.48;5.53;;;14.10;64.80;;;;;;6275861;22;20353;-69
2023/04/11 11:20:20;;;;;;;9.90;5.18;;;14.10;64.70;;;;;;6275452;22;20038;-69
2023/04/11 11:23:05;;;;;;;9.50;5.60;;;14.20;65.00;;;;;;6276028;22;20002;-69
2023/04/11 11:25:32;;;;;;;6.88;5.15;;;14.30;65.10;;;;;;6276074;22;20020;-69
2023/04/11 11:28:08;;;;;;;6.70;5.18;;;14.30;64.80;;;;;;6275520;22;20000;-69
2023/04/11 11:30:35;;;;;;;6.82;4.93;;;14.30;65.00;;;;;;6276092;22;20097;-69
2023/04/11 11:33:16;;;;;;;9.18;5.20;;;14.30;64.60;;;;;;6275228;22;20083;-68
2023/04/11 11:35:48;;;;;;;7.90;4.95;;;14.30;64.60;;;;;;6275083;22;20004;-69
2023/04/11 11:38:14;;;;;;;7.20;5.18;;;14.40;64.90;;;;;;6275389;22;19995;-68
2023/04/11 11:40:40;;;;;;;7.47;4.85;;;14.40;64.80;;;;;;6275687;22;20003;-68
2023/04/11 11:43:06;;;;;;;5.95;4.72;;;14.50;64.50;;;;;;6246598;22;20311;-69
2023/04/11 11:45:32;;;;;;;7.85;5.03;;;14.50;64.10;;;;;;6245257;22;20378;-69
2023/04/11 11:47:58;;;;;;;8.52;5.10;;;14.50;63.80;;;;;;6246457;22;20004;-69
2023/04/11 11:50:29;;;;;;;6.57;5.25;;;14.60;63.90;;;;;;6275726;22;20069;-69
2023/04/11 11:52:57;;;;;;;8.65;5.53;;;14.60;63.40;;;;;;6275637;22;20004;-69
2023/04/11 11:55:23;;;;;;;10.23;6.28;;;14.60;63.30;;;;;;6275723;22;20018;-69
2023/04/11 11:57:49;;;;;;;8.10;4.72;;;14.60;63.60;;;;;;6275728;22;20003;-68
2023/04/11 12:00:26;;;;;;;7.43;5.20;;;14.60;63.40;;;;;;6275861;22;19999;-69
2023/04/11 12:02:53;;;;;;;6.10;4.85;;;14.60;63.50;;;;;;6275928;22;20000;-68
2023/04/11 12:05:19;;;;;;;9.48;5.35;;;14.70;63.30;;;;;;6276009;22;20004;-69
2023/04/11 12:07:45;;;;;;;6.55;4.88;;;14.70;62.90;;;;;;6275536;22;20371;-69
2023/04/11 12:10:16;;;;;;;5.60;4.43;;;14.80;62.60;;;;;;6275808;22;20030;-68
2023/04/11 12:12:43;;;;;;;6.65;4.68;;;14.80;63.20;;;;;;6275634;22;20445;-68
2023/04/11 12:15:15;;;;;;;6.72;5.00;;;14.90;61.50;;;;;;6275669;22;20000;-70
2023/04/11 12:17:42;;;;;;;7.00;5.15;;;14.90;61.40;;;;;;6275602;22;20018;-69
2023/04/11 12:20:14;;;;;;;6.53;5.07;;;15.00;61.50;;;;;;6275411;22;20000;-71
2023/04/11 12:22:40;;;;;;;7.30;5.00;;;15.10;61.80;;;;;;6276707;22;19999;-68
2023/04/11 12:25:13;;;;;;;8.20;5.38;;;15.10;61.70;;;;;;6277563;22;20129;-71
2023/04/11 12:27:41;;;;;;;6.30;5.20;;;15.20;61.90;;;;;;6277486;22;20007;-68
2023/04/11 12:30:09;;;;;;;8.65;6.90;;;15.20;61.70;;;;;;6277125;22;19999;-71
2023/04/11 12:32:36;;;;;;;12.73;5.50;;;15.30;61.30;;;;;;6277442;22;19995;-71
2023/04/11 12:35:03;;;;;;;10.98;6.57;;;15.30;61.90;;;;;;6277039;22;20018;-69
2023/04/11 12:37:29;;;;;;;10.80;6.68;;;15.30;61.90;;;;;;6277163;22;20046;-69
2023/04/11 12:39:55;;;;;;;6.65;5.38;;;15.30;61.80;;;;;;6277687;22;20009;-70
2023/04/11 12:42:21;;;;;;;7.15;4.80;;;15.40;60.90;;;;;;6277553;22;20303;-69
2023/04/11 12:44:47;;;;;;;7.30;5.07;;;15.50;60.90;;;;;;6277361;22;20016;-69